createdAt,value
2018-05-13T00:00:10.860Z,20.63
2018-05-13T00:02:39.154Z,19.43
2018-05-13T00:05:07.462Z,23.37
2018-05-13T00:07:36.522Z,19.17
2018-05-13T00:10:05.864Z,20.90
2018-05-13T00:12:34.164Z,19.27
2018-05-13T00:15:02.463Z,21.30
2018-05-13T00:17:30.723Z,19.80
2018-05-13T00:19:59.023Z,18.33
2018-05-13T00:22:27.308Z,21.20
2018-05-13T00:24:55.621Z,21.07
2018-05-13T00:27:23.924Z,22.03
2018-05-13T00:29:52.245Z,21.33
2018-05-13T00:32:21.306Z,20.80
2018-05-13T00:34:49.632Z,21.07
2018-05-13T00:37:17.944Z,23.50
2018-05-13T00:39:46.264Z,20.47
2018-05-13T00:42:14.614Z,21.37
2018-05-13T00:44:43.596Z,22.80
2018-05-13T00:47:11.929Z,23.10
2018-05-13T00:49:40.240Z,22.07
2018-05-13T00:52:08.538Z,24.10
2018-05-13T00:54:48.482Z,21.97
2018-05-13T00:57:16.788Z,21.47
2018-05-13T00:59:45.090Z,22.53
2018-05-13T01:02:13.419Z,22.10
2018-05-13T01:04:41.688Z,23.93
2018-05-13T01:07:10.016Z,23.53
2018-05-13T01:09:39.079Z,23.50
2018-05-13T01:12:07.403Z,23.73
2018-05-13T01:14:36.464Z,22.10
2018-05-13T01:17:04.734Z,23.20
2018-05-13T01:19:33.019Z,22.20
2018-05-13T01:22:01.309Z,22.83
2018-05-13T01:24:30.355Z,24.90
2018-05-13T01:26:58.653Z,24.10
2018-05-13T01:29:27.755Z,24.30
2018-05-13T01:31:56.070Z,24.43
2018-05-13T01:34:24.328Z,25.47
2018-05-13T01:36:53.391Z,25.57
2018-05-13T01:39:21.676Z,25.50
2018-05-13T01:41:49.988Z,26.87
2018-05-13T01:44:18.296Z,24.80
2018-05-13T01:46:46.597Z,25.93
2018-05-13T01:49:14.903Z,27.43
2018-05-13T01:51:43.279Z,27.10
2018-05-13T01:54:11.555Z,26.43
2018-05-13T01:56:40.640Z,27.67
2018-05-13T01:59:08.950Z,27.03
2018-05-13T02:01:37.256Z,24.73
2018-05-13T02:04:05.561Z,26.43
2018-05-13T02:06:33.872Z,28.53
2018-05-13T02:09:02.932Z,27.20
2018-05-13T02:11:31.216Z,27.83
2018-05-13T02:14:01.142Z,26.77
2018-05-13T02:16:29.466Z,26.43
2018-05-13T02:18:57.739Z,26.70
2018-05-13T02:21:26.072Z,26.87
2018-05-13T02:23:54.346Z,27.57
2018-05-13T02:26:22.687Z,28.17
2018-05-13T02:28:51.465Z,28.43
2018-05-13T02:31:19.759Z,27.20
2018-05-13T02:33:48.051Z,28.67
2018-05-13T02:36:16.366Z,29.00
2018-05-13T02:38:45.443Z,28.50
2018-05-13T02:41:14.649Z,29.87
2018-05-13T02:43:43.708Z,29.87
2018-05-13T02:46:11.983Z,30.40
2018-05-13T02:48:40.319Z,29.03
2018-05-13T02:51:08.624Z,28.07
2018-05-13T02:53:36.932Z,29.40
2018-05-13T02:56:05.230Z,30.33
2018-05-13T02:58:34.303Z,29.77
2018-05-13T03:01:02.609Z,30.90
2018-05-13T03:03:30.928Z,28.80
2018-05-13T03:05:59.216Z,29.80
2018-05-13T03:08:27.528Z,29.73
2018-05-13T03:10:56.607Z,28.50
2018-05-13T03:13:25.685Z,30.73
2018-05-13T03:15:53.993Z,29.30
2018-05-13T03:18:23.094Z,27.77
2018-05-13T03:20:52.172Z,28.13
2018-05-13T03:23:20.507Z,29.80
2018-05-13T03:25:48.868Z,30.43
2018-05-13T03:28:17.198Z,29.53
2018-05-13T03:30:45.507Z,31.50
2018-05-13T03:33:13.819Z,29.37
2018-05-13T03:35:42.198Z,30.57
2018-05-13T03:38:10.515Z,32.67
2018-05-13T03:40:38.896Z,32.43
2018-05-13T03:43:07.168Z,31.43
2018-05-13T03:45:36.291Z,30.97
2018-05-13T03:48:05.365Z,30.90
2018-05-13T03:50:33.757Z,31.23
2018-05-13T03:53:02.838Z,30.17
2018-05-13T03:55:31.961Z,33.23
2018-05-13T03:58:01.031Z,30.73
2018-05-13T04:00:30.220Z,30.53
2018-05-13T04:02:58.563Z,30.77
2018-05-13T04:05:27.035Z,30.63
2018-05-13T04:11:01.172Z,29.30
2018-05-13T04:13:41.306Z,31.40
2018-05-13T04:16:09.631Z,32.37
2018-05-13T04:18:37.923Z,32.30
2018-05-13T04:21:07.035Z,29.90
2018-05-13T04:23:35.380Z,31.67
2018-05-13T04:26:03.771Z,30.93
2018-05-13T04:28:32.900Z,31.67
2018-05-13T04:31:01.224Z,30.17
2018-05-13T04:33:30.251Z,31.57
2018-05-13T04:35:59.435Z,29.90
2018-05-13T04:38:27.772Z,30.60
2018-05-13T04:40:56.085Z,31.03
2018-05-13T04:43:25.225Z,30.50
2018-05-13T04:45:53.549Z,30.43
2018-05-13T04:48:21.927Z,29.00
2018-05-13T04:50:50.274Z,30.73
2018-05-13T04:53:18.611Z,30.57
2018-05-13T04:55:46.993Z,31.07
2018-05-13T04:58:15.316Z,30.57
2018-05-13T05:00:43.629Z,31.00
2018-05-13T05:03:11.994Z,31.60
2018-05-13T05:05:40.345Z,30.93
2018-05-13T05:08:08.684Z,28.67
2018-05-13T05:10:37.027Z,35.23
2018-05-13T05:13:05.359Z,32.97
2018-05-13T05:15:33.719Z,31.67
2018-05-13T05:18:02.057Z,29.30
2018-05-13T05:20:30.360Z,30.23
2018-05-13T05:22:58.845Z,30.77
2018-05-13T05:25:27.964Z,28.63
2018-05-13T05:27:57.352Z,31.70
2018-05-13T05:30:25.725Z,31.50
2018-05-13T05:32:54.165Z,30.00
2018-05-13T05:35:22.615Z,30.40
2018-05-13T05:37:50.887Z,31.53
2018-05-13T05:40:20.035Z,29.10
2018-05-13T05:42:48.343Z,30.77
2018-05-13T05:45:17.410Z,32.17
2018-05-13T05:47:45.793Z,31.10
2018-05-13T05:50:14.084Z,32.20
2018-05-13T05:52:43.178Z,30.27
2018-05-13T05:55:12.360Z,29.03
2018-05-13T05:57:40.731Z,29.17
2018-05-13T06:00:09.004Z,33.47
2018-05-13T06:02:37.311Z,30.37
2018-05-13T06:05:06.392Z,30.17
2018-05-13T06:07:35.464Z,29.37
2018-05-13T06:10:03.751Z,29.87
2018-05-13T06:12:32.052Z,29.70
2018-05-13T06:15:01.142Z,29.47
2018-05-13T06:17:29.453Z,29.17
2018-05-13T06:19:57.779Z,31.57
2018-05-13T06:22:27.797Z,29.63
2018-05-13T06:24:56.275Z,28.07
2018-05-13T06:27:24.570Z,27.93
2018-05-13T06:29:52.873Z,27.67
2018-05-13T06:32:21.172Z,29.47
2018-05-13T06:34:49.491Z,28.40
2018-05-13T06:37:18.593Z,29.27
2018-05-13T06:39:46.890Z,29.43
2018-05-13T06:42:15.181Z,28.40
2018-05-13T06:44:44.331Z,27.97
2018-05-13T06:47:12.632Z,28.23
2018-05-13T06:49:40.928Z,33.40
2018-05-13T06:52:09.225Z,30.50
2018-05-13T06:54:37.529Z,28.87
2018-05-13T06:57:05.840Z,28.97
2018-05-13T06:59:34.903Z,26.83
2018-05-13T07:02:03.220Z,26.23
2018-05-13T07:04:31.518Z,28.60
2018-05-13T07:06:59.789Z,28.63
2018-05-13T07:09:28.108Z,28.17
2018-05-13T07:11:56.408Z,28.70
2018-05-13T07:14:25.495Z,29.23
2018-05-13T07:16:53.796Z,30.33
2018-05-13T07:19:22.099Z,32.20
2018-05-13T07:21:50.536Z,31.17
2018-05-13T07:24:18.817Z,28.87
2018-05-13T07:26:47.863Z,26.23
2018-05-13T07:29:16.213Z,30.07
2018-05-13T07:31:44.501Z,29.03
2018-05-13T07:34:12.820Z,30.77
2018-05-13T07:36:41.135Z,28.90
2018-05-13T07:39:09.453Z,31.07
2018-05-13T07:41:37.736Z,29.13
2018-05-13T07:44:06.035Z,28.57
2018-05-13T07:46:34.324Z,29.23
2018-05-13T07:49:03.384Z,30.07
2018-05-13T07:51:31.731Z,30.10
2018-05-13T07:54:00.003Z,31.37
2018-05-13T07:56:28.350Z,29.57
2018-05-13T07:58:57.424Z,27.40
2018-05-13T08:01:25.727Z,30.83
2018-05-13T08:03:54.031Z,30.67
2018-05-13T08:06:22.329Z,31.03
2018-05-13T08:08:50.614Z,30.63
2018-05-13T08:11:18.932Z,31.10
2018-05-13T08:13:48.037Z,28.37
2018-05-13T08:16:16.401Z,29.93
2018-05-13T08:18:44.781Z,27.57
2018-05-13T08:21:13.055Z,30.43
2018-05-13T08:23:42.152Z,29.90
2018-05-13T08:26:10.471Z,32.37
2018-05-13T08:28:38.751Z,28.57
2018-05-13T08:31:07.092Z,29.30
2018-05-13T08:33:35.389Z,32.37
2018-05-13T08:36:04.434Z,30.60
2018-05-13T08:38:32.723Z,32.50
2018-05-13T08:41:01.812Z,27.73
2018-05-13T08:43:30.102Z,28.17
2018-05-13T08:45:59.147Z,27.00
2018-05-13T08:48:27.488Z,27.63
2018-05-13T08:50:55.778Z,27.97
2018-05-13T08:53:24.088Z,27.00
2018-05-13T08:55:52.367Z,26.60
2018-05-13T08:58:20.651Z,23.63
2018-05-13T09:00:48.969Z,24.40
2018-05-13T09:03:18.035Z,25.20
2018-05-13T09:05:46.339Z,24.77
2018-05-13T09:08:14.651Z,23.00
2018-05-13T09:10:42.957Z,23.67
2018-05-13T09:13:11.345Z,24.40
2018-05-13T09:15:39.647Z,24.63
2018-05-13T09:18:08.719Z,22.57
2018-05-13T09:20:37.164Z,21.27
2018-05-13T09:23:06.194Z,20.87
2018-05-13T09:25:35.291Z,19.43
2018-05-13T09:28:03.576Z,19.90
2018-05-13T09:30:32.637Z,20.87
2018-05-13T09:33:00.954Z,18.70
2018-05-13T09:35:29.251Z,19.20
2018-05-13T09:37:57.581Z,18.40
2018-05-13T09:40:25.876Z,19.40
2018-05-13T09:42:56.340Z,18.67
2018-05-13T09:45:24.667Z,18.80
2018-05-13T09:47:53.754Z,20.47
2018-05-13T09:50:22.062Z,18.27
2018-05-13T09:52:50.359Z,19.13
2018-05-13T09:55:18.747Z,18.90
2018-05-13T09:57:47.091Z,18.67
2018-05-13T10:00:16.158Z,21.30
2018-05-13T10:02:44.447Z,18.40
2018-05-13T10:05:12.819Z,18.63
2018-05-13T10:07:41.203Z,19.73
2018-05-13T10:10:09.483Z,19.77
2018-05-13T10:12:37.852Z,20.67
2018-05-13T10:15:06.136Z,19.37
2018-05-13T10:17:34.443Z,20.23
2018-05-13T10:20:02.731Z,19.07
2018-05-13T10:22:31.003Z,18.50
2018-05-13T10:24:59.294Z,20.83
2018-05-13T10:27:27.615Z,19.80
2018-05-13T10:29:55.904Z,19.10
2018-05-13T10:32:24.975Z,17.97
2018-05-13T10:34:53.267Z,17.50
2018-05-13T10:37:22.375Z,16.83
2018-05-13T10:39:51.452Z,17.20
2018-05-13T10:42:19.731Z,16.87
2018-05-13T10:44:48.807Z,15.80
2018-05-13T10:47:17.102Z,14.40
2018-05-13T10:49:47.016Z,12.67
2018-05-13T10:52:15.329Z,12.73
2018-05-13T10:54:43.611Z,10.90
2018-05-13T10:57:11.944Z,11.07
2018-05-13T10:59:40.793Z,11.87
2018-05-13T11:02:09.095Z,11.07
2018-05-13T11:04:37.383Z,12.10
2018-05-13T11:07:05.762Z,11.27
2018-05-13T11:09:34.145Z,11.43
2018-05-13T11:12:02.460Z,10.73
2018-05-13T11:14:31.384Z,13.03
2018-05-13T11:16:59.663Z,11.83
2018-05-13T11:19:28.011Z,11.13
2018-05-13T11:21:57.108Z,10.60
2018-05-13T11:24:25.403Z,10.07
2018-05-13T11:26:53.811Z,9.30
2018-05-13T11:29:21.996Z,9.03
2018-05-13T11:31:51.073Z,9.20
2018-05-13T11:34:19.372Z,8.57
2018-05-13T11:36:48.239Z,9.37
2018-05-13T11:39:16.548Z,8.67
2018-05-13T11:41:45.632Z,9.30
2018-05-13T11:44:14.643Z,10.13
2018-05-13T11:46:43.039Z,8.60
2018-05-13T11:49:11.307Z,9.93
2018-05-13T11:51:40.364Z,8.00
2018-05-13T11:54:08.644Z,8.47
2018-05-13T11:56:37.019Z,10.60
2018-05-13T11:59:05.287Z,8.80
2018-05-13T12:01:33.592Z,8.23
2018-05-13T12:04:01.864Z,9.50
2018-05-13T12:06:30.168Z,7.80
2018-05-13T12:08:59.198Z,9.20
2018-05-13T12:11:27.464Z,8.83
2018-05-13T12:13:55.755Z,9.07
2018-05-13T12:16:24.052Z,8.43
2018-05-13T12:18:52.319Z,9.53
2018-05-13T12:21:20.633Z,8.20
2018-05-13T12:23:49.681Z,9.00
2018-05-13T12:26:17.994Z,7.67
2018-05-13T12:28:46.265Z,8.37
2018-05-13T12:31:14.540Z,8.17
2018-05-13T12:33:42.839Z,8.03
2018-05-13T12:36:11.868Z,8.27
2018-05-13T12:38:40.122Z,8.03
2018-05-13T12:41:08.424Z,8.33
2018-05-13T12:43:36.700Z,7.00
2018-05-13T12:46:04.956Z,8.57
2018-05-13T12:48:33.254Z,8.20
2018-05-13T12:51:01.515Z,7.87
2018-05-13T12:53:29.771Z,8.40
2018-05-13T12:55:58.058Z,7.83
2018-05-13T12:58:26.352Z,8.00
2018-05-13T13:00:54.603Z,7.60
2018-05-13T13:03:23.105Z,8.73
2018-05-13T13:05:51.383Z,8.00
2018-05-13T13:08:19.688Z,7.93
2018-05-13T13:10:47.963Z,8.27
2018-05-13T13:13:16.247Z,7.30
2018-05-13T13:15:44.525Z,8.23
2018-05-13T13:18:12.830Z,8.97
2018-05-13T13:20:41.890Z,9.53
2018-05-13T13:23:10.292Z,9.33
2018-05-13T13:25:38.537Z,8.20
2018-05-13T13:28:06.829Z,11.43
2018-05-13T13:30:35.108Z,10.60
2018-05-13T13:33:03.402Z,9.27
2018-05-13T13:35:32.442Z,8.07
2018-05-13T13:38:00.723Z,8.77
2018-05-13T13:40:28.983Z,10.27
2018-05-13T13:42:57.316Z,9.37
2018-05-13T13:45:25.584Z,9.27
2018-05-13T13:47:53.840Z,7.70
2018-05-13T13:50:22.116Z,9.20
2018-05-13T13:52:50.395Z,9.33
2018-05-13T13:55:18.675Z,8.70
2018-05-13T13:57:46.943Z,8.60
2018-05-13T14:00:15.229Z,8.40
2018-05-13T14:02:43.491Z,9.80
2018-05-13T14:05:11.783Z,10.30
2018-05-13T14:07:40.050Z,8.50
2018-05-13T14:10:08.327Z,8.40
2018-05-13T14:12:36.606Z,8.00
2018-05-13T14:15:04.895Z,8.53
2018-05-13T14:17:33.203Z,7.73
2018-05-13T14:20:02.354Z,8.20
2018-05-13T14:22:30.535Z,8.43
2018-05-13T14:24:58.911Z,9.20
2018-05-13T14:27:27.195Z,7.30
2018-05-13T14:29:55.582Z,9.67
2018-05-13T14:32:23.787Z,8.37
2018-05-13T14:34:52.816Z,8.37
2018-05-13T14:37:21.137Z,7.53
2018-05-13T14:39:49.422Z,8.30
2018-05-13T14:42:17.717Z,9.67
2018-05-13T14:44:46.739Z,8.47
2018-05-13T14:47:15.143Z,7.83
2018-05-13T14:49:43.408Z,8.90
2018-05-13T14:52:11.791Z,8.40
2018-05-13T14:54:40.067Z,8.27
2018-05-13T14:57:08.348Z,9.10
2018-05-13T14:59:36.603Z,9.00
2018-05-13T15:02:04.899Z,8.57
2018-05-13T15:04:33.172Z,9.20
2018-05-13T15:07:01.479Z,9.00
2018-05-13T15:09:29.831Z,8.87
2018-05-13T15:11:58.097Z,9.57
2018-05-13T15:14:26.487Z,8.57
2018-05-13T15:16:54.774Z,9.20
2018-05-13T15:19:23.843Z,10.13
2018-05-13T15:21:52.112Z,10.13
2018-05-13T15:24:20.398Z,9.47
2018-05-13T15:26:48.679Z,9.80
2018-05-13T15:29:16.959Z,10.03
2018-05-13T15:31:45.239Z,9.67
2018-05-13T15:34:13.532Z,10.37
2018-05-13T15:36:43.349Z,7.80
2018-05-13T15:39:12.382Z,9.03
2018-05-13T15:41:40.703Z,8.40
2018-05-13T15:44:09.020Z,7.87
2018-05-13T15:46:38.055Z,8.03
2018-05-13T15:49:06.321Z,8.13
2018-05-13T15:51:34.636Z,8.37
2018-05-13T15:54:03.004Z,8.40
2018-05-13T15:56:31.379Z,7.63
2018-05-13T15:58:59.665Z,7.80
2018-05-13T16:01:27.968Z,8.27
2018-05-13T16:03:56.995Z,7.27
2018-05-13T16:06:25.305Z,8.00
2018-05-13T16:08:53.573Z,6.47
2018-05-13T16:11:22.063Z,8.80
2018-05-13T16:13:50.444Z,8.23
2018-05-13T16:16:18.715Z,9.43
2018-05-13T16:18:47.108Z,8.23
2018-05-13T16:21:15.471Z,6.93
2018-05-13T16:23:43.760Z,7.50
2018-05-13T16:26:13.563Z,8.83
2018-05-13T16:28:41.843Z,8.93
2018-05-13T16:31:11.647Z,7.53
2018-05-13T16:33:39.927Z,7.30
2018-05-13T16:36:08.191Z,7.83
2018-05-13T16:38:36.585Z,7.60
2018-05-13T16:41:04.850Z,8.13
2018-05-13T16:43:33.126Z,8.93
2018-05-13T16:46:01.505Z,8.07
2018-05-13T16:48:29.799Z,7.77
2018-05-13T16:50:58.077Z,7.73
2018-05-13T16:53:26.336Z,8.17
2018-05-13T16:55:54.627Z,6.27
2018-05-13T16:58:22.887Z,8.43
2018-05-13T17:00:51.162Z,6.87
2018-05-13T17:03:19.443Z,8.40
2018-05-13T17:05:47.719Z,7.57
2018-05-13T17:08:16.004Z,7.20
2018-05-13T17:10:44.376Z,6.70
2018-05-13T17:13:12.671Z,7.47
2018-05-13T17:15:40.942Z,6.80
2018-05-13T17:18:10.024Z,6.87
2018-05-13T17:20:38.302Z,5.80
2018-05-13T17:23:06.579Z,5.70
2018-05-13T17:25:34.841Z,5.50
2018-05-13T17:28:03.123Z,5.67
2018-05-13T17:30:31.427Z,6.40
2018-05-13T17:32:59.693Z,4.77
2018-05-13T17:35:28.063Z,5.47
2018-05-13T17:37:56.328Z,5.10
2018-05-13T17:40:24.607Z,5.03
2018-05-13T17:42:52.991Z,4.77
2018-05-13T17:45:21.271Z,10.23
2018-05-13T17:47:49.573Z,5.20
2018-05-13T17:50:17.896Z,5.20
2018-05-13T17:52:46.191Z,4.63
2018-05-13T17:55:14.497Z,6.13
2018-05-13T17:57:43.544Z,5.27
2018-05-13T18:00:11.872Z,5.63
2018-05-13T18:02:40.166Z,6.57
2018-05-13T18:05:09.212Z,9.33
2018-05-13T18:07:37.483Z,4.60
2018-05-13T18:10:05.768Z,5.87
2018-05-13T18:12:34.064Z,4.40
2018-05-13T18:15:02.318Z,4.57
2018-05-13T18:17:30.695Z,5.33
2018-05-13T18:19:59.028Z,4.03
2018-05-13T18:22:27.316Z,4.27
2018-05-13T18:24:55.678Z,6.00
2018-05-13T18:27:23.838Z,4.63
2018-05-13T18:29:53.024Z,4.47
2018-05-13T18:32:21.290Z,4.97
2018-05-13T18:34:50.336Z,5.57
2018-05-13T18:37:18.628Z,6.10
2018-05-13T18:39:46.891Z,4.30
2018-05-13T18:42:15.180Z,4.60
2018-05-13T18:44:43.463Z,5.10
2018-05-13T18:47:11.775Z,4.77
2018-05-13T18:49:40.954Z,4.67
2018-05-13T18:52:10.012Z,4.60
2018-05-13T18:54:38.360Z,5.57
2018-05-13T18:57:06.600Z,5.10
2018-05-13T18:59:34.883Z,7.93
2018-05-13T19:02:03.963Z,4.57
2018-05-13T19:04:32.254Z,4.80
2018-05-13T19:07:00.548Z,8.03
2018-05-13T19:09:29.584Z,8.83
2018-05-13T19:11:57.960Z,4.53
2018-05-13T19:14:26.144Z,5.13
2018-05-13T19:16:54.513Z,3.87
2018-05-13T19:19:22.789Z,6.40
2018-05-13T19:21:51.087Z,5.27
2018-05-13T19:24:19.369Z,5.40
2018-05-13T19:26:47.672Z,4.87
2018-05-13T19:29:15.947Z,5.43
2018-05-13T19:31:44.212Z,4.97
2018-05-13T19:34:12.511Z,5.60
2018-05-13T19:36:40.810Z,4.60
2018-05-13T19:39:09.105Z,4.83
2018-05-13T19:41:37.383Z,4.87
2018-05-13T19:44:05.659Z,4.43
2018-05-13T19:46:33.947Z,4.63
2018-05-13T19:49:02.225Z,5.23
2018-05-13T19:51:30.523Z,4.33
2018-05-13T19:53:59.595Z,4.60
2018-05-13T19:56:27.868Z,4.60
2018-05-13T19:58:56.983Z,6.57
2018-05-13T20:01:26.066Z,4.30
2018-05-13T20:03:54.330Z,3.70
2018-05-13T20:06:22.640Z,5.23
2018-05-13T20:08:50.925Z,4.70
2018-05-13T20:11:19.183Z,8.63
2018-05-13T20:13:48.966Z,5.00
2018-05-13T20:16:17.251Z,5.60
2018-05-13T20:18:45.539Z,6.03
2018-05-13T20:21:13.923Z,5.53
2018-05-13T20:23:42.184Z,4.80
2018-05-13T20:26:10.451Z,4.53
2018-05-13T20:28:39.555Z,4.47
2018-05-13T20:31:07.811Z,3.93
2018-05-13T20:33:36.092Z,4.60
2018-05-13T20:36:04.449Z,4.80
2018-05-13T20:38:32.666Z,5.07
2018-05-13T20:41:01.029Z,4.80
2018-05-13T20:43:29.435Z,5.17
2018-05-13T20:45:57.715Z,5.10
2018-05-13T20:48:25.971Z,7.37
2018-05-13T20:50:54.255Z,6.10
2018-05-13T20:53:22.539Z,5.00
2018-05-13T20:55:50.943Z,4.23
2018-05-13T20:58:19.255Z,5.63
2018-05-13T21:00:47.527Z,6.20
2018-05-13T21:03:15.836Z,5.70
2018-05-13T21:05:44.103Z,4.30
2018-05-13T21:08:12.380Z,4.53
2018-05-13T21:10:40.679Z,4.97
2018-05-13T21:13:08.955Z,4.80
2018-05-13T21:15:37.248Z,4.50
2018-05-13T21:18:05.508Z,4.00
2018-05-13T21:20:33.792Z,7.47
2018-05-13T21:23:02.052Z,7.30
2018-05-13T21:25:30.327Z,8.20
2018-05-13T21:27:58.903Z,4.80
2018-05-13T21:30:27.210Z,8.87
2018-05-13T21:32:55.484Z,4.53
2018-05-13T21:35:23.747Z,4.93
2018-05-13T21:37:52.032Z,5.93
2018-05-13T21:40:20.299Z,6.53
2018-05-13T21:42:48.572Z,4.33
2018-05-13T21:45:16.856Z,4.30
2018-05-13T21:47:45.915Z,4.70
2018-05-13T21:50:14.252Z,4.93
2018-05-13T21:52:42.494Z,4.30
2018-05-13T21:55:10.787Z,4.77
2018-05-13T21:57:39.063Z,5.23
2018-05-13T22:00:07.308Z,4.90
2018-05-13T22:02:35.604Z,3.83
2018-05-13T22:05:03.863Z,4.20
2018-05-13T22:07:32.147Z,7.20
2018-05-13T22:10:00.430Z,4.27
2018-05-13T22:12:28.704Z,4.70
2018-05-13T22:14:56.996Z,4.23
2018-05-13T22:17:25.383Z,4.47
2018-05-13T22:19:53.640Z,6.20
2018-05-13T22:22:21.936Z,4.00
2018-05-13T22:24:50.296Z,5.50
2018-05-13T22:27:20.014Z,4.00
2018-05-13T22:29:49.962Z,5.23
2018-05-13T22:32:20.588Z,4.70
2018-05-13T22:34:49.607Z,3.83
2018-05-13T22:37:18.465Z,6.10
2018-05-13T22:39:48.439Z,6.63
2018-05-13T22:42:17.547Z,5.03
2018-05-13T22:44:47.310Z,9.73
2018-05-13T22:47:16.270Z,6.07
2018-05-13T22:49:45.214Z,4.93
2018-05-13T22:52:14.387Z,4.47
2018-05-13T22:54:42.900Z,4.63
2018-05-13T22:57:11.183Z,5.43
2018-05-13T22:59:39.428Z,4.33
2018-05-13T23:02:07.727Z,4.10
2018-05-13T23:04:36.003Z,4.80
2018-05-13T23:07:04.303Z,5.80
2018-05-13T23:09:32.568Z,5.17
2018-05-13T23:12:00.860Z,5.00
2018-05-13T23:14:29.230Z,6.73
2018-05-13T23:16:57.531Z,5.87
2018-05-13T23:19:26.603Z,6.23
2018-05-13T23:21:54.887Z,4.13
2018-05-13T23:24:23.167Z,4.40
2018-05-13T23:26:51.436Z,4.17
2018-05-13T23:29:19.700Z,4.77
2018-05-13T23:31:47.977Z,4.43
2018-05-13T23:34:16.256Z,4.83
2018-05-13T23:36:46.035Z,4.00
2018-05-13T23:39:14.347Z,4.87
2018-05-13T23:41:42.607Z,5.70
2018-05-13T23:44:10.936Z,4.33
2018-05-13T23:46:39.989Z,5.27
2018-05-13T23:49:08.251Z,5.33
2018-05-13T23:51:36.606Z,5.00
2018-05-13T23:54:04.810Z,5.13
2018-05-13T23:56:33.063Z,5.57
2018-05-13T23:59:01.356Z,4.57
